ZBHH METAR and TAF | Updated Today

ZBHH METAR

Baita International Airport

Observation time: 11 min. ago

ZBHH 061900Z 04002MPS CAVOK M08/M15 Q1018 NOSIG

Need help? Read our tutorial on how to read METARs or read the parsed version below.

Baita International Airport (ZBHH) METAR

  • Weather conditions on Mon, 06 Feb 2023 19:00:00 +0000 (11 min. ago):
  • Present conditions: Dry
  • Clouds: Clear skies
  • Visibility: Greater than 10 km
  • Wind: 40 degrees at 2 knots
  • Temperature: -8 celsius
  • Dew point: -15 celsius
  • Pressure: 1018 millibars
  • Remarks: None


Useful to know...

ZBHH TAF

Baita International Airport

TAF ZBHH 061500Z 0618/0718 06004MPS CAVOK TX04/0707Z TNM10/0622Z
Observation time: 4:11 hr. ago
Need help? Read our tutorial on how to read TAFs or read the parsed version below.

Parsed version of TAF for Baita International Airport (ZBHH)

  • From 06 February at 18:00 UTC, to day 07 of the month at 18:00 UTC
  • Visibility: Greater than 10 km
  • Wind: 60 degrees at 4

Airports near ZBHH

No airports found within 100nm radius.